Time;durP1;ratioP1;P1;durP2;ratioP2;P2;SDS_P1;SDS_P2;PMS_P1;PMS_P2;Temp;Humidity;BMP_temperature;BMP_pressure;BME280_temperature;BME280_humidity;BME280_pressure;Samples;Min_cycle;Max_cycle;Signal;HPM_P1;HPM_P2
2022/11/04 00:01:25;;;;;;;8.35;5.13;;;;;;;12.06;69.13;91795.94;2054322;70;20146;-75
2022/11/04 00:03:53;;;;;;;8.40;5.38;;;;;;;12.10;69.84;91795.38;2050787;70;20166;-75
2022/11/04 00:06:19;;;;;;;7.93;5.32;;;;;;;11.97;70.74;91794.16;2048326;70;20146;-76
2022/11/04 00:08:50;;;;;;;13.30;5.38;;;;;;;11.95;71.28;91788.41;2054191;70;20242;-76
2022/11/04 00:14:00;;;;;;;8.60;5.28;;;;;;;11.92;70.53;91798.88;2054334;70;20157;-76
2022/11/04 00:19:10;;;;;;;9.23;5.72;;;;;;;11.77;70.93;91796.09;2054333;70;20541;-76
2022/11/04 00:29:48;;;;;;;9.55;5.80;;;;;;;11.86;71.25;91787.34;2054181;70;20146;-76
2022/11/04 00:34:57;;;;;;;9.25;5.70;;;;;;;11.59;72.26;91793.22;2054555;70;20188;-76
2022/11/04 00:37:23;;;;;;;14.25;6.47;;;;;;;11.70;71.84;91795.13;2054290;70;20149;-77
2022/11/04 00:39:54;;;;;;;8.88;5.70;;;;;;;11.56;72.91;91788.88;2051198;70;20145;-76
2022/11/04 00:42:19;;;;;;;11.38;6.80;;;;;;;11.77;71.62;91793.97;2054296;70;20177;-76
2022/11/04 00:44:45;;;;;;;11.88;6.32;;;;;;;11.75;72.32;91788.28;2054313;70;20590;-75
2022/11/04 00:47:12;;;;;;;10.75;5.80;;;;;;;11.80;72.63;91792.72;2055918;70;20670;-74
2022/11/04 00:49:38;;;;;;;9.80;5.60;;;;;;;11.84;72.43;91792.91;2055693;70;20246;-74
2022/11/04 00:52:03;;;;;;;9.85;5.55;;;;;;;11.85;72.07;91782.34;2054621;69;20546;-74
2022/11/04 00:54:29;;;;;;;9.20;5.05;;;;;;;11.81;72.53;91785.69;2054461;70;20153;-76
2022/11/04 00:56:55;;;;;;;7.57;5.60;;;;;;;11.85;72.11;91782.34;2050979;70;20134;-74
2022/11/04 00:59:20;;;;;;;11.60;5.78;;;;;;;11.87;71.15;91788.09;2054087;70;20613;-75
2022/11/04 01:01:46;;;;;;;12.13;5.80;;;;;;;11.83;72.51;91783.00;2054259;70;20177;-77
2022/11/04 01:04:12;;;;;;;7.55;5.47;;;;;;;11.85;72.16;91782.34;2050975;70;20209;-76
2022/11/04 01:06:37;;;;;;;12.95;5.47;;;;;;;11.79;73.16;91784.91;2054316;70;20177;-76
2022/11/04 01:09:07;;;;;;;11.15;5.90;;;;;;;11.20;75.68;91783.13;2054240;70;20158;-76
2022/11/04 01:11:33;;;;;;;10.70;5.70;;;;;;;11.32;74.81;91783.66;2054127;70;20142;-76
2022/11/04 01:13:59;;;;;;;11.15;5.78;;;;;;;11.55;73.52;91796.59;2050826;70;20598;-74
2022/11/04 01:16:26;;;;;;;8.77;5.80;;;;;;;11.53;74.18;91793.69;2054038;70;20145;-74
2022/11/04 01:18:52;;;;;;;9.65;6.00;;;;;;;11.64;73.15;91797.69;2054178;70;20571;-75
2022/11/04 01:21:19;;;;;;;9.52;5.70;;;;;;;11.69;72.62;91797.22;2054076;70;20547;-74
2022/11/04 01:23:45;;;;;;;9.65;5.15;;;;;;;11.63;73.62;91805.38;2054100;70;20611;-73
2022/11/04 01:26:18;;;;;;;9.98;5.60;;;;;;;11.39;75.91;91807.16;2054330;70;20178;-74
2022/11/04 01:28:43;;;;;;;8.65;5.72;;;;;;;11.43;75.56;91807.34;2053989;70;20160;-77
2022/11/04 01:31:12;;;;;;;9.32;5.50;;;;;;;11.50;75.00;91813.97;2054166;70;20126;-75
2022/11/04 01:33:38;;;;;;;10.75;5.60;;;;;;;11.61;74.07;91815.88;2054244;70;20551;-75
2022/11/04 01:36:05;;;;;;;11.80;6.18;;;;;;;11.66;74.16;91823.84;2053867;70;20150;-74
2022/11/04 01:38:32;;;;;;;11.95;6.30;;;;;;;11.65;74.07;91828.03;2053929;70;20138;-75
2022/11/04 01:40:58;;;;;;;7.47;4.88;;;;;;;11.15;78.31;91832.19;2053677;70;20146;-75
2022/11/04 01:43:45;;;;;;;7.75;4.68;;;;;;;11.40;76.61;91826.25;2053784;70;20158;-75
2022/11/04 01:46:21;;;;;;;5.45;3.00;;;;;;;11.18;75.82;91842.91;2054069;70;20606;-76
2022/11/04 01:48:46;;;;;;;3.33;2.03;;;;;;;10.93;75.14;91849.53;2054018;70;20213;-76
2022/11/04 01:51:13;;;;;;;3.33;1.92;;;;;;;10.96;74.47;91864.44;2054117;70;20575;-76
2022/11/04 01:53:42;;;;;;;2.08;1.10;;;;;;;11.09;72.98;91882.63;2054041;70;20245;-76
2022/11/04 01:56:11;;;;;;;2.47;1.35;;;;;;;10.94;73.53;91881.22;2054036;70;20316;-76
2022/11/04 01:58:42;;;;;;;2.03;1.30;;;;;;;10.91;73.75;91891.69;2053973;70;20185;-74
2022/11/04 02:01:11;;;;;;;3.35;1.38;;;;;;;11.16;73.08;91899.16;2054158;70;20162;-74
2022/11/04 02:06:48;;;;;;;5.55;1.17;;;;;;;11.12;73.41;91890.50;2053992;70;20161;-74
2022/11/04 02:09:16;;;;;;;4.13;0.75;;;;;;;11.16;72.06;91890.69;2054018;70;20589;-74
2022/11/04 02:14:27;;;;;;;0.50;0.30;;;;;;;10.78;73.31;91903.00;2054033;70;20628;-75
2022/11/04 02:17:20;;;;;;;2.40;0.40;;;;;;;10.88;72.88;91901.38;2053809;70;20598;-75
2022/11/04 02:20:15;;;;;;;0.32;0.30;;;;;;;10.89;72.55;91905.66;2052029;70;20142;-74
2022/11/04 02:22:56;;;;;;;2.90;0.60;;;;;;;10.84;72.64;91918.09;2054010;70;20181;-75
2022/11/04 02:25:34;;;;;;;3.72;0.50;;;;;;;10.94;71.45;91912.94;2050688;70;20229;-74
2022/11/04 02:28:18;;;;;;;0.82;0.25;;;;;;;10.83;72.29;91913.81;2054360;70;20478;-74
2022/11/04 02:30:52;;;;;;;1.45;0.35;;;;;;;10.82;71.99;91917.28;2054328;70;20141;-75
2022/11/04 02:33:27;;;;;;;1.50;0.45;;;;;;;10.81;72.15;91922.19;2054486;70;20188;-75
2022/11/04 02:36:25;;;;;;;1.27;0.40;;;;;;;10.58;73.83;91920.41;2054617;70;20231;-75
2022/11/04 02:39:04;;;;;;;3.60;0.85;;;;;;;10.63;73.40;91922.03;2051472;70;20250;-75
2022/11/04 02:41:40;;;;;;;3.95;0.60;;;;;;;10.69;72.75;91927.22;2054500;70;20142;-74
2022/11/04 02:44:24;;;;;;;0.55;0.30;;;;;;;10.71;72.60;91918.13;2054327;70;20144;-74
2022/11/04 02:47:13;;;;;;;0.93;0.50;;;;;;;10.65;73.24;91916.50;2054559;70;20141;-75
2022/11/04 02:49:46;;;;;;;1.75;0.30;;;;;;;10.67;73.33;91916.59;2054626;70;20514;-73
2022/11/04 02:52:24;;;;;;;1.40;0.30;;;;;;;10.55;73.82;91912.47;2054292;70;20142;-73
2022/11/04 02:55:01;;;;;;;1.92;0.40;;;;;;;10.56;73.60;91917.47;2051266;70;20619;-73
2022/11/04 02:57:31;;;;;;;1.45;0.40;;;;;;;10.57;72.71;91915.38;2051156;70;20296;-73
2022/11/04 03:00:04;;;;;;;0.20;0.20;;;;;;;10.60;72.60;91914.13;2054498;70;20244;-74
2022/11/04 03:02:40;;;;;;;2.15;0.43;;;;;;;10.46;72.99;91910.63;2051200;70;20221;-75
2022/11/04 03:05:09;;;;;;;4.07;0.20;;;;;;;10.43;72.90;91924.59;2054607;70;20593;-75
2022/11/04 03:07:39;;;;;;;0.73;0.30;;;;;;;10.49;72.79;91931.88;2054600;69;20152;-75
2022/11/04 03:10:12;;;;;;;2.63;0.55;;;;;;;10.53;72.18;91935.59;2054508;69;20224;-75
2022/11/04 03:12:45;;;;;;;4.50;0.60;;;;;;;10.47;73.05;91932.50;2054630;70;20142;-74
2022/11/04 03:15:17;;;;;;;1.38;0.50;;;;;;;10.53;72.19;91918.00;2054453;70;20606;-75
2022/11/04 03:17:55;;;;;;;0.93;0.38;;;;;;;10.38;73.47;91920.13;2051302;70;20150;-74
2022/11/04 03:20:26;;;;;;;1.73;0.63;;;;;;;10.32;73.76;91919.84;2054460;70;20233;-74
2022/11/04 03:22:58;;;;;;;1.10;0.57;;;;;;;10.33;73.57;91917.75;2054585;70;20158;-74
2022/11/04 03:25:28;;;;;;;3.50;0.60;;;;;;;10.35;72.96;91920.66;2054451;70;20150;-75
2022/11/04 03:28:08;;;;;;;1.75;0.57;;;;;;;10.32;73.24;91922.66;2054450;70;20569;-74
2022/11/04 03:30:50;;;;;;;3.20;0.50;;;;;;;10.27;73.47;91943.50;2054379;70;20193;-75
2022/11/04 03:33:29;;;;;;;6.10;0.52;;;;;;;10.35;72.60;91955.13;2054600;70;20251;-75
2022/11/04 03:35:54;;;;;;;3.20;0.50;;;;;;;10.28;72.69;91952.66;2054542;70;20158;-75
2022/11/04 03:38:21;;;;;;;0.50;0.40;;;;;;;10.38;71.74;91942.63;2054368;70;20454;-75
2022/11/04 03:40:48;;;;;;;2.30;0.50;;;;;;;10.41;71.14;91944.19;2054584;70;20197;-75
2022/11/04 03:43:17;;;;;;;0.90;0.50;;;;;;;10.26;71.25;91950.47;2054538;70;20154;-75
2022/11/04 03:45:42;;;;;;;1.65;0.40;;;;;;;10.27;71.57;91962.47;2054307;70;20621;-75
2022/11/04 03:48:08;;;;;;;0.98;0.40;;;;;;;10.23;71.75;91962.94;2054425;70;20150;-75
2022/11/04 03:50:50;;;;;;;0.57;0.40;;;;;;;10.08;71.83;91958.72;2054377;70;20126;-75
2022/11/04 03:53:21;;;;;;;1.35;0.40;;;;;;;10.09;71.92;91936.94;2054531;70;20154;-75
2022/11/04 03:56:17;;;;;;;0.52;0.40;;;;;;;10.06;71.80;91933.28;2054403;70;20170;-75
2022/11/04 03:59:04;;;;;;;0.60;0.45;;;;;;;9.88;72.93;91940.78;2048116;70;20234;-75
2022/11/04 04:01:51;;;;;;;1.75;0.57;;;;;;;9.94;72.33;91941.09;2054540;70;20229;-75
2022/11/04 04:04:38;;;;;;;0.40;0.40;;;;;;;9.95;72.58;91934.13;2054433;69;20181;-75
2022/11/04 04:07:12;;;;;;;1.05;0.40;;;;;;;9.82;72.83;91948.91;2054403;70;20150;-75
2022/11/04 04:09:50;;;;;;;1.00;0.50;;;;;;;9.76;73.74;91940.91;2054326;70;20161;-76
2022/11/04 04:12:36;;;;;;;2.50;0.50;;;;;;;9.75;73.36;91933.81;2054317;70;20305;-75
2022/11/04 04:15:05;;;;;;;0.52;0.43;;;;;;;9.82;73.00;91943.31;2054184;70;20165;-75
2022/11/04 04:17:49;;;;;;;1.85;0.60;;;;;;;9.84;72.35;91941.31;2054406;70;20170;-75
2022/11/04 04:20:19;;;;;;;0.90;0.60;;;;;;;9.84;72.28;91934.97;2051080;70;20145;-76
2022/11/04 04:23:00;;;;;;;0.85;0.47;;;;;;;9.82;72.51;91955.28;2054634;70;20161;-76
2022/11/04 04:28:16;;;;;;;0.82;0.50;;;;;;;9.77;73.06;91967.66;2054344;70;20156;-76
2022/11/04 04:30:43;;;;;;;0.70;0.50;;;;;;;9.83;72.61;91951.09;2054197;70;20150;-75
2022/11/04 04:33:15;;;;;;;0.68;0.50;;;;;;;9.72;73.02;91943.50;2054406;70;20217;-75
2022/11/04 04:35:51;;;;;;;0.45;0.43;;;;;;;9.73;72.65;91941.44;2054344;70;20173;-76
2022/11/04 04:47:40;;;;;;;2.25;0.60;;;;;;;9.65;74.26;91936.84;2054317;70;20130;-75
2022/11/04 04:50:10;;;;;;;1.23;0.50;;;;;;;9.71;73.12;91927.97;2054338;70;20590;-75
2022/11/04 04:52:41;;;;;;;1.02;0.50;;;;;;;9.68;73.29;91929.97;2054269;70;20225;-74
2022/11/04 04:55:08;;;;;;;1.63;0.70;;;;;;;9.42;74.63;91940.56;2050993;70;20182;-74
2022/11/04 04:57:34;;;;;;;1.38;0.60;;;;;;;8.79;76.70;91928.75;2054458;70;20230;-75
2022/11/04 05:00:00;;;;;;;1.10;0.90;;;;;;;9.16;75.48;91937.09;2054098;70;20146;-75
2022/11/04 05:02:25;;;;;;;2.05;0.80;;;;;;;9.18;75.39;91947.69;2054177;70;20146;-77
2022/11/04 05:04:51;;;;;;;2.47;1.52;;;;;;;9.29;74.54;91946.88;2054108;70;20381;-77
2022/11/04 05:07:16;;;;;;;1.17;0.80;;;;;;;9.22;73.93;91950.72;2054324;70;20177;-75
2022/11/04 05:09:43;;;;;;;1.55;0.90;;;;;;;9.15;74.60;91949.66;2054347;69;20224;-76
2022/11/04 05:12:09;;;;;;;1.67;1.00;;;;;;;9.13;74.69;91958.00;2054086;70;20606;-77
2022/11/04 05:14:34;;;;;;;2.38;1.30;;;;;;;9.15;74.76;91937.69;2054122;70;20177;-76
2022/11/04 05:17:00;;;;;;;1.20;0.95;;;;;;;9.26;73.64;91928.47;2054112;70;20613;-76
2022/11/04 05:19:26;;;;;;;4.75;1.05;;;;;;;9.08;74.65;91949.97;2054153;70;20148;-76
2022/11/04 05:21:51;;;;;;;1.48;1.15;;;;;;;8.84;76.17;91961.34;2054040;70;20149;-75
2022/11/04 05:24:17;;;;;;;3.92;0.80;;;;;;;8.96;75.04;91946.50;2054200;70;20176;-75
2022/11/04 05:26:43;;;;;;;1.00;0.70;;;;;;;9.15;74.43;91929.28;2054193;70;20161;-75
2022/11/04 05:29:09;;;;;;;1.15;0.70;;;;;;;9.25;73.75;91923.47;2054185;70;20189;-75
2022/11/04 05:31:34;;;;;;;1.73;0.80;;;;;;;9.35;73.95;91910.72;2051573;70;20261;-74
2022/11/04 05:34:00;;;;;;;1.95;0.80;;;;;;;9.39;73.41;91912.97;2055555;70;20360;-75
2022/11/04 05:36:29;;;;;;;1.25;0.85;;;;;;;9.37;73.50;91926.94;2055383;70;20170;-75
2022/11/04 05:38:54;;;;;;;1.65;0.80;;;;;;;9.31;74.30;91915.38;2054324;70;20212;-77
2022/11/04 05:41:26;;;;;;;1.13;0.60;;;;;;;9.23;73.31;91904.44;2054308;70;20174;-77
2022/11/04 05:43:56;;;;;;;1.50;0.70;;;;;;;9.22;71.35;91899.44;2054023;70;20179;-77
2022/11/04 05:46:22;;;;;;;0.85;0.55;;;;;;;9.29;71.64;91899.13;2054323;70;20221;-75
2022/11/04 05:48:48;;;;;;;1.95;0.60;;;;;;;9.24;71.51;91889.03;2053979;70;20217;-75
2022/11/04 05:51:16;;;;;;;1.90;0.50;;;;;;;9.25;71.79;91890.50;2054038;70;20479;-76
2022/11/04 05:53:42;;;;;;;1.23;0.70;;;;;;;9.08;71.22;91894.53;2054168;70;20586;-76
2022/11/04 05:56:08;;;;;;;1.63;0.80;;;;;;;8.95;71.36;91892.44;2054014;70;20154;-75
2022/11/04 05:58:33;;;;;;;1.48;0.75;;;;;;;9.03;71.50;91890.06;2053915;70;20515;-74
2022/11/04 06:01:24;;;;;;;2.15;0.98;;;;;;;9.02;71.42;91904.69;2054176;70;20510;-74
2022/11/04 06:03:50;;;;;;;1.40;1.13;;;;;;;9.07;71.32;91929.59;2054564;70;20142;-74
2022/11/04 06:06:16;;;;;;;2.92;1.35;;;;;;;9.01;71.27;91936.94;2054677;70;20170;-74
2022/11/04 06:08:42;;;;;;;2.22;1.15;;;;;;;8.89;70.99;91934.94;2051139;70;20519;-73
2022/11/04 06:11:07;;;;;;;4.15;1.00;;;;;;;8.94;71.68;91929.56;2054448;70;20673;-73
2022/11/04 06:13:33;;;;;;;2.45;0.77;;;;;;;8.89;71.63;91912.50;2054430;70;20210;-74
2022/11/04 06:15:58;;;;;;;2.65;0.80;;;;;;;8.90;72.51;91908.31;2051183;70;20178;-74
2022/11/04 06:18:24;;;;;;;0.60;0.60;;;;;;;8.88;72.56;91905.41;2054558;70;20288;-74
2022/11/04 06:20:49;;;;;;;1.33;0.85;;;;;;;8.78;72.58;91913.28;2054709;70;20158;-73
2022/11/04 06:23:15;;;;;;;2.78;0.73;;;;;;;8.80;72.49;91929.50;2051183;70;20142;-74
2022/11/04 06:25:42;;;;;;;1.27;0.70;;;;;;;8.84;72.22;91952.16;2054416;70;20141;-74
2022/11/04 06:28:08;;;;;;;0.95;0.63;;;;;;;8.89;72.17;91953.88;2054542;70;20217;-74
2022/11/04 06:30:33;;;;;;;2.25;0.77;;;;;;;8.88;71.74;91927.13;2054471;70;20232;-75
2022/11/04 06:32:59;;;;;;;1.15;0.70;;;;;;;8.86;72.23;91919.34;2054547;70;20134;-74
2022/11/04 06:35:25;;;;;;;1.10;0.70;;;;;;;8.74;72.47;91920.75;2054590;70;20130;-73
2022/11/04 06:37:53;;;;;;;1.42;0.63;;;;;;;8.77;72.46;91922.31;2054438;70;20150;-75
2022/11/04 06:40:19;;;;;;;1.35;0.60;;;;;;;8.88;72.44;91932.75;2054513;69;20141;-74
2022/11/04 06:42:44;;;;;;;1.10;0.68;;;;;;;8.50;73.01;91936.97;2054472;69;20560;-73
2022/11/04 06:45:10;;;;;;;1.30;0.77;;;;;;;8.72;72.65;91951.50;2054354;70;20527;-73
2022/11/04 06:47:36;;;;;;;0.90;0.60;;;;;;;8.78;71.56;91954.63;2048406;70;20154;-74
2022/11/04 06:50:02;;;;;;;1.85;0.65;;;;;;;8.73;72.38;91950.88;2054554;70;20173;-74
2022/11/04 06:52:27;;;;;;;2.47;0.85;;;;;;;8.73;73.26;91959.31;2051062;70;20253;-73
2022/11/04 06:54:53;;;;;;;2.00;1.17;;;;;;;8.75;73.13;91959.44;2054567;70;20147;-73
2022/11/04 06:57:18;;;;;;;2.75;1.20;;;;;;;8.76;73.13;91948.94;2054429;70;20161;-75
2022/11/04 06:59:44;;;;;;;2.70;0.70;;;;;;;8.72;73.09;91943.81;2052999;70;20138;-73
2022/11/04 07:02:10;;;;;;;1.55;0.70;;;;;;;8.37;74.60;91943.97;2054487;70;20142;-74
2022/11/04 07:04:36;;;;;;;3.58;2.17;;;;;;;8.64;73.44;91934.94;2054515;70;20153;-73
2022/11/04 07:07:02;;;;;;;3.15;2.13;;;;;;;8.46;73.68;91959.91;2051129;70;20145;-74
2022/11/04 07:09:27;;;;;;;3.25;1.80;;;;;;;8.41;73.67;91966.63;2054455;69;20165;-73
2022/11/04 07:11:53;;;;;;;2.08;1.27;;;;;;;8.53;73.55;91963.78;2054632;70;20603;-74
2022/11/04 07:14:18;;;;;;;1.33;1.00;;;;;;;8.65;72.56;91953.97;2054251;70;20164;-74
2022/11/04 07:16:44;;;;;;;3.63;2.47;;;;;;;8.59;72.59;91962.03;2053039;70;20138;-74
2022/11/04 07:19:09;;;;;;;3.72;2.05;;;;;;;8.69;72.18;91964.69;2054467;70;20156;-74
2022/11/04 07:21:35;;;;;;;3.65;2.55;;;;;;;8.59;71.91;91948.00;2054525;70;20150;-74
2022/11/04 07:24:01;;;;;;;4.63;2.55;;;;;;;8.63;72.28;91933.50;2051051;70;20180;-75
2022/11/04 07:26:27;;;;;;;4.35;2.42;;;;;;;8.48;73.14;91926.38;2054369;70;20653;-75
2022/11/04 07:28:56;;;;;;;4.07;2.95;;;;;;;8.19;73.74;91931.69;2054323;70;20162;-74
2022/11/04 07:31:22;;;;;;;8.40;4.65;;;;;;;7.80;76.35;91961.03;2054438;70;20234;-74
2022/11/04 07:33:50;;;;;;;9.60;5.10;;;;;;;8.10;75.44;91964.84;2051072;70;20632;-74
2022/11/04 07:36:16;;;;;;;10.23;6.25;;;;;;;8.29;74.55;91969.47;2054436;70;20633;-73
2022/11/04 07:38:42;;;;;;;8.40;5.32;;;;;;;8.29;74.49;91954.69;2054312;70;20154;-74
2022/11/04 07:41:07;;;;;;;8.18;4.97;;;;;;;8.10;76.25;91945.22;2054486;69;20158;-74
2022/11/04 07:43:33;;;;;;;6.25;2.80;;;;;;;8.21;75.20;91949.34;2054194;70;20652;-74
2022/11/04 07:46:01;;;;;;;4.75;2.30;;;;;;;8.37;74.61;91966.41;2054337;70;20154;-74
2022/11/04 07:48:26;;;;;;;3.10;2.25;;;;;;;8.39;73.54;91966.53;2054461;69;20142;-74
2022/11/04 07:50:57;;;;;;;3.20;2.30;;;;;;;8.34;74.05;91979.56;2054445;70;20557;-74
2022/11/04 07:53:23;;;;;;;4.03;2.50;;;;;;;8.38;73.54;91973.47;2054473;70;20220;-73
2022/11/04 07:55:49;;;;;;;4.55;3.08;;;;;;;7.93;75.43;91968.06;2051057;70;20153;-74
2022/11/04 07:58:17;;;;;;;6.65;3.15;;;;;;;7.92;75.29;91971.47;2054299;70;20244;-74
2022/11/04 08:00:42;;;;;;;4.70;2.83;;;;;;;8.13;74.13;91972.03;2054147;70;20635;-73
2022/11/04 08:03:08;;;;;;;5.50;2.90;;;;;;;8.08;75.14;91969.63;2054244;70;20130;-74
2022/11/04 08:05:34;;;;;;;3.83;2.10;;;;;;;8.26;73.19;91973.47;2054244;69;20154;-73
2022/11/04 08:08:00;;;;;;;4.68;2.10;;;;;;;8.21;73.20;91949.34;2054355;70;20170;-74
2022/11/04 08:10:25;;;;;;;3.65;2.58;;;;;;;8.17;74.11;91951.94;2054432;70;20164;-74
2022/11/04 08:12:51;;;;;;;7.43;3.10;;;;;;;8.16;74.68;91956.09;2054245;70;20264;-75
2022/11/04 08:15:17;;;;;;;5.70;4.10;;;;;;;8.14;74.73;91950.34;2050765;70;20170;-73
2022/11/04 08:17:44;;;;;;;8.07;4.30;;;;;;;8.20;74.38;91956.31;2054395;70;20601;-74
2022/11/04 08:20:11;;;;;;;6.20;3.50;;;;;;;7.94;74.57;91952.72;2051001;70;20606;-74
2022/11/04 08:22:37;;;;;;;6.03;3.30;;;;;;;8.20;73.38;91947.91;2054317;70;20522;-74
2022/11/04 08:25:04;;;;;;;3.13;2.13;;;;;;;8.04;73.31;91935.75;2053852;69;20614;-74
2022/11/04 08:27:33;;;;;;;5.55;2.20;;;;;;;8.02;72.32;91947.59;2054329;69;20157;-75
2022/11/04 08:29:59;;;;;;;3.13;2.03;;;;;;;8.05;71.99;91942.81;2057482;69;20157;-74
2022/11/04 08:32:25;;;;;;;3.08;2.08;;;;;;;8.09;72.55;91940.97;2057733;69;20482;-73
2022/11/04 08:34:51;;;;;;;5.38;2.38;;;;;;;7.92;73.37;91944.19;2057740;69;20174;-74
2022/11/04 08:37:16;;;;;;;2.17;1.52;;;;;;;7.89;73.26;91937.72;2057682;69;20690;-74
2022/11/04 08:39:42;;;;;;;2.15;1.20;;;;;;;7.68;71.98;91951.88;2057620;69;20510;-74
2022/11/04 08:42:08;;;;;;;2.15;1.25;;;;;;;7.88;71.37;91950.28;2057883;69;20237;-74
2022/11/04 08:44:34;;;;;;;0.77;0.70;;;;;;;7.82;71.16;91943.59;2057537;69;20236;-75
2022/11/04 08:47:02;;;;;;;0.43;0.40;;;;;;;7.86;71.81;91943.81;2057631;69;20570;-75
2022/11/04 08:49:27;;;;;;;0.50;0.50;;;;;;;7.90;72.15;91950.41;2057544;69;20597;-75
2022/11/04 08:51:55;;;;;;;1.17;0.60;;;;;;;7.93;71.75;91953.34;2057653;69;20621;-75
2022/11/04 08:54:22;;;;;;;1.55;0.90;;;;;;;7.94;70.32;91963.19;2057677;69;20494;-74
2022/11/04 08:56:48;;;;;;;2.00;0.80;;;;;;;7.93;69.88;91961.75;2057572;69;20231;-74
2022/11/04 08:59:13;;;;;;;1.80;0.85;;;;;;;7.81;71.10;91970.16;2057386;69;20145;-74
2022/11/04 09:01:41;;;;;;;2.67;1.00;;;;;;;7.78;71.23;91971.38;2057550;69;20253;-76
2022/11/04 09:04:07;;;;;;;2.42;1.83;;;;;;;7.75;70.84;91973.34;2057545;69;20592;-77
2022/11/04 09:06:36;;;;;;;2.20;1.40;;;;;;;7.72;71.87;91982.22;2057640;69;20149;-76
2022/11/04 09:09:04;;;;;;;1.60;0.90;;;;;;;7.76;71.90;91971.25;2057611;69;20150;-76
2022/11/04 09:11:36;;;;;;;1.52;1.05;;;;;;;7.83;71.91;91973.81;2057572;69;20516;-74
2022/11/04 09:14:03;;;;;;;2.25;1.00;;;;;;;7.78;72.17;91979.78;2057654;69;20520;-76
2022/11/04 09:16:30;;;;;;;1.58;1.00;;;;;;;7.79;72.48;91970.03;2057657;69;20154;-76
2022/11/04 09:18:57;;;;;;;8.25;4.93;;;;;;;7.45;70.04;91969.44;2057621;69;20232;-78
2022/11/04 09:21:23;;;;;;;22.77;13.50;;;;;;;7.54;70.38;91965.06;2057502;69;20173;-77
2022/11/04 09:23:49;;;;;;;6.43;4.05;;;;;;;7.69;70.57;91964.56;2057647;69;20244;-78
2022/11/04 09:26:16;;;;;;;1.60;1.10;;;;;;;7.46;70.26;91970.91;2057638;69;20220;-79
2022/11/04 09:28:42;;;;;;;2.33;0.70;;;;;;;7.72;70.55;91962.63;2057400;69;20585;-80
2022/11/04 09:31:16;;;;;;;1.35;0.85;;;;;;;7.81;69.96;91961.75;2057680;69;20252;-78
2022/11/04 09:33:42;;;;;;;0.80;0.55;;;;;;;7.74;70.40;91957.84;2057546;69;20161;-75
2022/11/04 09:36:10;;;;;;;1.35;0.60;;;;;;;7.73;69.88;91930.44;2057663;69;20169;-74
2022/11/04 09:38:37;;;;;;;0.57;0.57;;;;;;;7.90;69.15;91947.59;2057946;69;20563;-77
2022/11/04 09:41:48;;;;;;;2.00;0.90;;;;;;;7.97;69.63;91934.69;2058104;69;20138;-75
2022/11/04 09:44:25;;;;;;;2.20;1.23;;;;;;;7.81;69.90;91934.47;2053501;69;20146;-76
2022/11/04 09:46:55;;;;;;;1.35;0.77;;;;;;;7.79;69.86;91934.34;2058118;69;20142;-74
2022/11/04 09:49:23;;;;;;;1.65;0.90;;;;;;;7.71;70.20;91931.06;2058398;69;20165;-74
2022/11/04 09:51:50;;;;;;;2.20;0.90;;;;;;;7.73;69.12;91928.38;2061120;69;20192;-75
2022/11/04 09:54:27;;;;;;;0.80;0.63;;;;;;;7.68;68.84;91935.09;2059918;69;20237;-75
2022/11/04 09:56:56;;;;;;;1.20;0.98;;;;;;;7.65;69.33;91936.28;2059116;69;20150;-75
2022/11/04 09:59:31;;;;;;;1.58;0.98;;;;;;;7.69;69.45;91928.13;2058280;69;20149;-74
2022/11/04 10:02:17;;;;;;;1.25;1.00;;;;;;;7.74;69.91;91937.50;2057944;69;20169;-74
2022/11/04 10:05:01;;;;;;;2.70;1.20;;;;;;;7.60;69.41;91938.13;2058121;69;20150;-73
2022/11/04 10:07:35;;;;;;;1.90;1.13;;;;;;;7.56;69.85;91921.09;2058076;69;20221;-74
2022/11/04 10:10:22;;;;;;;1.65;1.20;;;;;;;7.64;70.05;91915.97;2054587;69;20209;-75
2022/11/04 10:13:01;;;;;;;2.50;1.42;;;;;;;7.77;69.70;91931.41;2057987;69;20184;-76
2022/11/04 10:15:53;;;;;;;6.75;2.00;;;;;;;7.38;70.60;91925.63;2057788;69;20241;-77
2022/11/04 10:18:46;;;;;;;3.38;1.75;;;;;;;7.78;69.71;91916.06;2057920;69;20232;-74
2022/11/04 10:21:33;;;;;;;3.17;1.48;;;;;;;7.80;68.83;91916.19;2058043;69;20209;-73
2022/11/04 10:24:14;;;;;;;6.53;3.72;;;;;;;7.89;68.93;91912.53;2058021;69;20149;-74
2022/11/04 10:26:56;;;;;;;10.85;5.53;;;;;;;7.94;68.67;91907.88;2057791;69;20157;-73
2022/11/04 10:29:29;;;;;;;6.53;3.95;;;;;;;8.00;68.50;91897.00;2057699;69;20177;-74
2022/11/04 10:31:58;;;;;;;4.32;2.95;;;;;;;8.05;69.31;91893.09;2058043;69;20142;-76
2022/11/04 10:34:56;;;;;;;1.27;1.02;;;;;;;8.20;69.86;91891.09;2057960;69;20161;-73
2022/11/04 10:37:23;;;;;;;2.65;1.40;;;;;;;8.35;68.81;91891.28;2056933;69;20225;-73
2022/11/04 10:39:51;;;;;;;4.20;2.80;;;;;;;8.37;68.90;91888.59;2054544;69;20176;-73
2022/11/04 10:42:21;;;;;;;4.78;2.53;;;;;;;8.46;68.85;91884.16;2057998;69;20230;-73
2022/11/04 10:44:49;;;;;;;3.53;2.13;;;;;;;8.45;67.43;91896.75;2057737;69;20141;-73
2022/11/04 10:47:39;;;;;;;4.95;1.90;;;;;;;8.06;67.86;91899.41;2057849;69;20491;-74
2022/11/04 10:50:12;;;;;;;2.22;1.77;;;;;;;8.11;68.07;91912.34;2058032;69;20249;-74
2022/11/04 10:52:38;;;;;;;8.27;4.80;;;;;;;8.17;67.88;91909.88;2057888;69;20658;-72
2022/11/04 10:55:29;;;;;;;8.60;4.88;;;;;;;8.25;68.99;91901.94;2057758;69;20157;-71
2022/11/04 10:57:58;;;;;;;10.88;5.38;;;;;;;8.44;68.84;91900.16;2057980;69;20146;-72
2022/11/04 11:00:39;;;;;;;4.72;2.88;;;;;;;8.65;68.02;91897.13;2058047;69;20152;-72
2022/11/04 11:03:25;;;;;;;3.67;2.10;;;;;;;8.35;67.64;91887.75;2058096;69;20567;-74
2022/11/04 11:05:52;;;;;;;2.58;1.73;;;;;;;8.04;67.65;91888.09;2058111;69;20149;-73
2022/11/04 11:08:36;;;;;;;2.78;1.70;;;;;;;8.30;67.90;91886.78;2057826;69;20177;-74
2022/11/04 11:11:05;;;;;;;3.35;1.88;;;;;;;8.43;67.53;91891.03;2057836;69;20148;-73
2022/11/04 11:13:43;;;;;;;1.83;1.38;;;;;;;8.34;68.79;91881.41;2057676;69;20146;-74
2022/11/04 11:16:17;;;;;;;1.98;1.50;;;;;;;8.30;68.08;91875.56;2057692;69;20548;-74
2022/11/04 11:18:42;;;;;;;1.88;1.50;;;;;;;8.38;68.80;91864.84;2057950;69;20189;-73
2022/11/04 11:21:20;;;;;;;1.98;1.38;;;;;;;8.36;68.92;91850.69;2057769;69;20162;-74
2022/11/04 11:23:47;;;;;;;3.67;1.52;;;;;;;8.35;68.63;91879.31;2057737;69;20146;-74
2022/11/04 11:26:18;;;;;;;1.30;0.90;;;;;;;8.39;66.30;91894.34;2057770;69;20529;-74
2022/11/04 11:28:51;;;;;;;1.60;1.15;;;;;;;8.31;66.55;91891.03;2056904;69;20294;-73
2022/11/04 11:31:23;;;;;;;;;;;;;;;8.50;67.06;91889.28;2055547;69;20562;-73
2022/11/04 11:33:56;;;;;;;2.55;1.33;;;;;;;8.62;67.44;91889.97;2054122;70;20102;-74
2022/11/04 11:36:25;;;;;;;2.97;2.30;;;;;;;8.46;69.00;91891.84;2054321;70;20234;-75
2022/11/04 11:38:58;;;;;;;2.03;1.40;;;;;;;8.47;67.87;91877.22;2054321;70;20142;-73
2022/11/04 11:41:30;;;;;;;2.13;1.23;;;;;;;8.61;67.82;91892.03;2054600;69;20673;-73
2022/11/04 11:44:00;;;;;;;1.95;1.10;;;;;;;8.29;67.31;91888.13;2054041;69;20185;-76
2022/11/04 11:46:28;;;;;;;2.10;1.15;;;;;;;8.23;68.31;91887.06;2054382;70;20162;-75
2022/11/04 11:49:00;;;;;;;1.30;1.20;;;;;;;8.14;67.73;91869.03;2054317;70;20150;-76
2022/11/04 11:51:43;;;;;;;2.38;1.50;;;;;;;8.11;68.20;91875.91;2054506;70;20213;-75
2022/11/04 11:54:22;;;;;;;1.85;1.10;;;;;;;7.77;68.13;91880.97;2054499;70;20618;-75
2022/11/04 11:56:56;;;;;;;2.30;1.10;;;;;;;8.10;68.91;91877.22;2054286;70;20178;-76
2022/11/04 11:59:46;;;;;;;2.55;1.90;;;;;;;8.51;67.40;91885.13;2054104;70;20245;-76
2022/11/04 12:02:30;;;;;;;3.47;2.00;;;;;;;8.58;66.99;91886.94;2054392;70;20142;-78
2022/11/04 12:04:56;;;;;;;1.77;1.60;;;;;;;8.69;66.71;91886.13;2054519;70;20173;-78
2022/11/04 12:07:44;;;;;;;1.65;1.50;;;;;;;8.67;67.82;91905.66;2054535;70;20321;-78
2022/11/04 12:10:16;;;;;;;2.92;1.80;;;;;;;8.43;67.17;91912.72;2054426;70;20161;-76
2022/11/04 12:13:01;;;;;;;3.28;1.52;;;;;;;8.53;66.30;91916.84;2051110;70;20134;-76
2022/11/04 12:15:52;;;;;;;1.75;1.42;;;;;;;8.48;67.13;91925.66;2054494;70;20213;-79
2022/11/04 12:18:33;;;;;;;1.60;1.17;;;;;;;7.97;67.61;91925.53;2054269;70;20205;-76
2022/11/04 12:21:12;;;;;;;1.27;1.10;;;;;;;8.14;68.82;91930.72;2054341;70;20169;-76
2022/11/04 12:23:42;;;;;;;1.50;1.23;;;;;;;8.26;68.24;91934.22;2054412;70;20154;-81
2022/11/04 12:26:09;;;;;;;2.15;1.55;;;;;;;8.16;68.31;91930.84;2054123;70;20546;-78
2022/11/04 12:28:35;;;;;;;3.00;1.70;;;;;;;8.35;68.00;91930.53;2054071;69;20158;-78
2022/11/04 12:31:07;;;;;;;3.35;2.00;;;;;;;8.32;67.63;91922.63;2054378;70;20138;-78